createdAt,value
2022-12-05T00:00:49.934Z,101.93
2022-12-05T00:15:51.840Z,100.97
2022-12-05T00:30:53.733Z,100.70
2022-12-05T00:45:55.671Z,89.28
2022-12-05T01:00:57.613Z,89.25
2022-12-05T01:15:59.763Z,98.25
2022-12-05T01:31:09.316Z,95.32
2022-12-05T01:46:11.287Z,93.50
2022-12-05T02:01:15.140Z,92.28
2022-12-05T02:16:23.160Z,89.53
2022-12-05T02:31:51.369Z,76.53
2022-12-05T02:46:56.086Z,74.72
2022-12-05T03:01:58.015Z,68.95
2022-12-05T03:17:04.954Z,66.85
2022-12-05T03:32:19.896Z,80.65
2022-12-05T03:47:48.037Z,68.60
2022-12-05T04:03:11.455Z,77.25
2022-12-05T04:18:13.455Z,68.88
2022-12-05T04:33:29.448Z,66.45
2022-12-05T04:48:32.906Z,68.07
2022-12-05T05:04:02.859Z,58.45
2022-12-05T05:19:06.749Z,62.63
2022-12-05T05:34:09.839Z,62.60
2022-12-05T05:49:11.972Z,64.80
2022-12-05T06:04:13.852Z,65.13
2022-12-05T06:19:15.741Z,67.18
2022-12-05T06:34:17.606Z,63.42
2022-12-05T06:49:19.660Z,63.55
2022-12-05T07:04:26.232Z,62.75
2022-12-05T07:19:28.082Z,59.25
2022-12-05T07:34:30.003Z,64.95
2022-12-05T07:49:31.853Z,57.47
2022-12-05T08:04:33.810Z,63.42
2022-12-05T08:19:35.739Z,64.88
2022-12-05T08:34:37.590Z,64.07
2022-12-05T08:49:39.448Z,71.90
2022-12-05T09:04:41.316Z,72.60
2022-12-05T09:19:43.337Z,76.07
2022-12-05T09:34:45.293Z,76.30
2022-12-05T09:49:57.574Z,78.50
2022-12-05T10:05:29.474Z,83.32
2022-12-05T10:20:48.742Z,86.30
2022-12-05T10:35:53.958Z,81.68
2022-12-05T10:50:58.395Z,75.93
2022-12-05T11:06:22.564Z,90.03
2022-12-05T11:21:25.589Z,88.43
2022-12-05T11:36:42.564Z,93.28
2022-12-05T11:52:13.120Z,96.40
2022-12-05T12:07:14.933Z,93.28
2022-12-05T12:22:38.752Z,91.38
2022-12-05T12:38:07.809Z,87.03
2022-12-05T12:53:18.317Z,90.93
2022-12-05T13:08:48.904Z,90.82
2022-12-05T13:23:55.964Z,89.60
2022-12-05T13:39:25.316Z,86.13
2022-12-05T13:54:31.083Z,84.88
2022-12-05T14:09:54.018Z,98.25
2022-12-05T14:25:09.369Z,97.47
2022-12-05T14:40:35.038Z,92.47
2022-12-05T14:55:37.209Z,86.82
2022-12-05T15:10:39.942Z,77.22
2022-12-05T15:25:43.251Z,85.97
2022-12-05T15:40:48.760Z,84.20
2022-12-05T15:55:55.819Z,95.57
2022-12-05T16:10:57.828Z,88.20
2022-12-05T16:26:21.100Z,78.78
2022-12-05T16:41:31.990Z,79.07
2022-12-05T16:56:34.237Z,61.33
2022-12-05T17:11:38.615Z,69.03
2022-12-05T17:26:40.479Z,81.32
2022-12-05T17:41:42.458Z,53.85
2022-12-05T17:56:44.426Z,47.38
2022-12-05T18:11:46.269Z,62.47
2022-12-05T18:26:48.214Z,51.28
2022-12-05T18:41:50.073Z,50.13
2022-12-05T18:56:52.948Z,44.17
2022-12-05T19:11:59.622Z,39.55
2022-12-05T19:27:01.672Z,46.58
2022-12-05T19:42:03.705Z,49.97
2022-12-05T19:57:05.766Z,67.63
2022-12-05T20:12:07.803Z,52.30
2022-12-05T20:27:09.789Z,95.82
2022-12-05T20:42:11.721Z,65.70
2022-12-05T20:57:13.626Z,57.38
2022-12-05T21:12:15.618Z,53.25
2022-12-05T21:27:17.474Z,49.50
2022-12-05T21:42:19.352Z,42.17
2022-12-05T21:57:21.335Z,30.08
2022-12-05T22:12:23.193Z,32.45
2022-12-05T22:27:25.075Z,46.42
2022-12-05T22:42:27.610Z,41.38
2022-12-05T22:57:30.196Z,34.15
2022-12-05T23:12:32.068Z,29.35
2022-12-05T23:27:34.696Z,29.88
2022-12-05T23:42:36.568Z,35.70
2022-12-05T23:57:38.465Z,37.42
